createdAt,value
2023-04-20T00:00:38.669Z,100621.52
2023-04-20T00:03:53.367Z,100615.79
2023-04-20T00:06:58.372Z,100617.77
2023-04-20T00:10:03.926Z,100620.04
2023-04-20T00:13:08.150Z,100612.77
2023-04-20T00:16:12.165Z,100620.03
2023-04-20T00:19:16.442Z,100620.27
2023-04-20T00:22:20.862Z,100620.41
2023-04-20T00:25:24.829Z,100615.05
2023-04-20T00:28:29.433Z,100615.72
2023-04-20T00:31:33.473Z,100614.87
2023-04-20T00:34:37.553Z,100613.88
2023-04-20T00:37:41.601Z,100613.64
2023-04-20T00:40:49.023Z,100613.84
2023-04-20T00:43:54.105Z,100618.98
2023-04-20T00:46:58.156Z,100619.73
2023-04-20T00:50:03.748Z,100621.24
2023-04-20T00:53:08.288Z,100618.73
2023-04-20T00:56:14.303Z,100622.45
2023-04-20T00:59:18.414Z,100621.70
2023-04-20T01:02:23.436Z,100622.60
2023-04-20T01:05:28.180Z,100622.58
2023-04-20T01:08:32.603Z,100621.55
2023-04-20T01:11:36.678Z,100622.50
2023-04-20T01:14:40.952Z,100618.67
2023-04-20T01:17:45.692Z,100620.88
2023-04-20T01:20:49.909Z,100615.73
2023-04-20T01:23:53.864Z,100617.20
2023-04-20T01:26:57.953Z,100617.84
2023-04-20T01:30:01.950Z,100613.98
2023-04-20T01:33:06.011Z,100613.60
2023-04-20T01:36:10.683Z,100610.42
2023-04-20T01:39:15.024Z,100612.34
2023-04-20T01:42:19.249Z,100609.39
2023-04-20T01:45:23.269Z,100603.60
2023-04-20T01:48:28.612Z,100606.64
2023-04-20T01:51:34.036Z,100609.66
2023-04-20T01:54:38.693Z,100607.80
2023-04-20T01:57:44.680Z,100609.38
2023-04-20T02:00:48.884Z,100608.58
2023-04-20T02:03:53.068Z,100610.74
2023-04-20T02:06:58.336Z,100613.02
2023-04-20T02:10:03.587Z,100612.34
2023-04-20T02:13:07.595Z,100609.31
2023-04-20T02:16:11.841Z,100611.75
2023-04-20T02:19:16.087Z,100610.91
2023-04-20T02:22:20.224Z,100612.81
2023-04-20T02:25:24.206Z,100614.14
2023-04-20T02:28:28.297Z,100616.83
2023-04-20T02:31:32.533Z,100613.41
2023-04-20T02:34:36.636Z,100614.02
2023-04-20T02:37:40.844Z,100615.52
2023-04-20T02:40:45.150Z,100612.90
2023-04-20T02:43:49.270Z,100614.68
2023-04-20T02:46:53.386Z,100613.41
2023-04-20T02:49:58.455Z,100613.67
2023-04-20T02:53:02.522Z,100613.84
2023-04-20T02:56:07.712Z,100615.85
2023-04-20T02:59:23.373Z,100617.92
2023-04-20T03:02:41.201Z,100622.38
2023-04-20T03:05:45.492Z,100621.98
2023-04-20T03:08:49.674Z,100628.23
2023-04-20T03:12:22.939Z,100622.93
2023-04-20T03:15:35.787Z,100621.32
2023-04-20T03:18:44.940Z,100624.61
2023-04-20T03:21:48.931Z,100624.31
2023-04-20T03:24:53.596Z,100626.50
2023-04-20T03:28:11.316Z,100623.92
2023-04-20T03:31:16.193Z,100622.13
2023-04-20T03:34:20.899Z,100622.35
2023-04-20T03:37:24.905Z,100621.38
2023-04-20T03:40:29.206Z,100622.05
2023-04-20T03:43:33.114Z,100624.21
2023-04-20T03:46:37.054Z,100625.50
2023-04-20T03:49:41.067Z,100626.30
2023-04-20T03:52:45.083Z,100632.67
2023-04-20T03:55:49.204Z,100637.89
2023-04-20T03:58:57.401Z,100637.27
2023-04-20T04:02:05.923Z,100637.16
2023-04-20T04:05:10.363Z,100636.70
2023-04-20T04:08:14.486Z,100640.20
2023-04-20T04:11:18.496Z,100642.42
2023-04-20T04:14:23.232Z,100640.48
2023-04-20T04:17:27.467Z,100644.30
2023-04-20T04:20:31.774Z,100647.00
2023-04-20T04:23:38.516Z,100650.67
2023-04-20T04:26:51.170Z,100650.66
2023-04-20T04:29:57.319Z,100651.84
2023-04-20T04:33:04.883Z,100653.36
2023-04-20T04:36:10.158Z,100654.54
2023-04-20T04:39:14.118Z,100654.44
2023-04-20T04:42:24.265Z,100658.19
2023-04-20T04:45:28.535Z,100660.73
2023-04-20T04:48:33.108Z,100663.70
2023-04-20T04:51:37.424Z,100666.08
2023-04-20T04:54:41.958Z,100663.03
2023-04-20T04:57:46.078Z,100663.96
2023-04-20T05:00:50.036Z,100660.61
2023-04-20T05:03:54.241Z,100663.96
2023-04-20T05:06:58.531Z,100667.79
2023-04-20T05:10:02.554Z,100671.56
2023-04-20T05:13:06.506Z,100679.02
2023-04-20T05:16:11.422Z,100686.21
2023-04-20T05:19:15.716Z,100684.44
2023-04-20T05:22:20.044Z,100688.61
2023-04-20T05:25:24.145Z,100687.23
2023-04-20T05:28:28.179Z,100686.16
2023-04-20T05:31:33.403Z,100688.46
2023-04-20T05:34:37.952Z,100697.24
2023-04-20T05:37:42.180Z,100698.38
2023-04-20T05:40:46.374Z,100703.84
2023-04-20T05:43:50.409Z,100701.34
2023-04-20T05:46:54.636Z,100703.20
2023-04-20T05:49:58.654Z,100702.48
2023-04-20T05:53:02.968Z,100704.55
2023-04-20T05:56:08.290Z,100710.10
2023-04-20T05:59:12.327Z,100719.31
2023-04-20T06:02:16.585Z,100719.64
2023-04-20T06:05:21.636Z,100720.23
2023-04-20T06:08:26.015Z,100723.99
2023-04-20T06:11:30.032Z,100728.58
2023-04-20T06:14:34.256Z,100728.70
2023-04-20T06:17:41.380Z,100730.17
2023-04-20T06:20:46.262Z,100732.14
2023-04-20T06:23:50.704Z,100733.80
2023-04-20T06:26:55.033Z,100732.30
2023-04-20T06:29:59.045Z,100730.23
2023-04-20T06:33:03.654Z,100727.31
2023-04-20T06:36:08.589Z,100725.63
2023-04-20T06:39:12.569Z,100729.11
2023-04-20T06:42:16.556Z,100726.14
2023-04-20T06:45:21.308Z,100729.78
2023-04-20T06:48:32.163Z,100728.29
2023-04-20T06:51:37.182Z,100730.93
2023-04-20T06:54:41.202Z,100731.77
2023-04-20T06:57:45.522Z,100732.38
2023-04-20T07:00:49.540Z,100734.35
2023-04-20T07:03:53.836Z,100734.39
2023-04-20T07:06:57.856Z,100732.27
2023-04-20T07:10:01.816Z,100735.97
2023-04-20T07:13:05.807Z,100734.17
2023-04-20T07:16:10.780Z,100734.98
2023-04-20T07:19:14.807Z,100735.95
2023-04-20T07:22:18.878Z,100742.95
2023-04-20T07:25:23.417Z,100739.77
2023-04-20T07:28:27.625Z,100742.48
2023-04-20T07:31:32.943Z,100740.85
2023-04-20T07:34:38.733Z,100742.44
2023-04-20T07:37:42.853Z,100740.36
2023-04-20T07:40:46.867Z,100734.14
2023-04-20T07:43:51.512Z,100739.77
2023-04-20T07:46:57.803Z,100739.77
2023-04-20T07:50:02.710Z,100737.63
2023-04-20T07:53:07.338Z,100742.05
2023-04-20T07:56:11.357Z,100745.17
2023-04-20T07:59:15.788Z,100742.05
2023-04-20T08:02:19.970Z,100740.75
2023-04-20T08:05:25.120Z,100736.29
2023-04-20T08:08:29.720Z,100736.45
2023-04-20T08:11:33.750Z,100734.90
2023-04-20T08:14:38.366Z,100735.48
2023-04-20T08:17:42.454Z,100737.23
2023-04-20T08:20:46.552Z,100741.54
2023-04-20T08:23:51.173Z,100744.65
2023-04-20T08:26:55.007Z,100748.89
2023-04-20T08:29:59.304Z,100743.39
2023-04-20T08:33:03.355Z,100736.99
2023-04-20T08:36:07.468Z,100738.63
2023-04-20T08:39:14.127Z,100737.77
2023-04-20T08:42:18.141Z,100739.35
2023-04-20T08:45:23.104Z,100733.39
2023-04-20T08:48:35.387Z,100730.96
2023-04-20T08:51:40.218Z,100722.38
2023-04-20T08:57:51.349Z,100719.22
2023-04-20T09:00:55.453Z,100723.05
2023-04-20T09:04:00.892Z,100721.22
2023-04-20T09:07:05.087Z,100719.48
2023-04-20T09:10:10.121Z,100718.73
2023-04-20T09:13:24.077Z,100717.58
2023-04-20T09:16:28.618Z,100719.63
2023-04-20T09:19:32.647Z,100715.22
2023-04-20T09:22:37.801Z,100715.79
2023-04-20T09:25:43.803Z,100711.11
2023-04-20T09:28:47.864Z,100709.65
2023-04-20T09:31:52.453Z,100707.42
2023-04-20T09:34:57.037Z,100715.38
2023-04-20T09:38:01.156Z,100712.63
2023-04-20T09:41:06.984Z,100716.25
2023-04-20T09:44:15.610Z,100719.29
2023-04-20T09:47:22.469Z,100720.94
2023-04-20T09:50:34.941Z,100728.49
2023-04-20T09:53:46.693Z,100728.20
2023-04-20T09:56:51.112Z,100722.95
2023-04-20T09:59:57.438Z,100718.85
2023-04-20T10:03:01.845Z,100717.45
2023-04-20T10:06:06.573Z,100709.14
2023-04-20T10:09:26.305Z,100710.63
2023-04-20T10:12:30.848Z,100709.45
2023-04-20T10:15:42.348Z,100716.19
2023-04-20T10:19:03.094Z,100711.20
2023-04-20T10:22:09.023Z,100705.36
2023-04-20T10:25:21.002Z,100711.95
2023-04-20T10:28:25.612Z,100711.28
2023-04-20T10:31:38.526Z,100708.77
2023-04-20T10:34:42.617Z,100703.52
2023-04-20T10:37:50.995Z,100700.68
2023-04-20T10:40:55.470Z,100696.64
2023-04-20T10:44:09.160Z,100697.61
2023-04-20T10:47:15.306Z,100695.64
2023-04-20T10:50:19.804Z,100692.48
2023-04-20T10:53:24.443Z,100692.30
2023-04-20T10:56:46.682Z,100690.82
2023-04-20T10:59:51.224Z,100688.64
2023-04-20T11:02:57.550Z,100691.13
2023-04-20T11:06:04.210Z,100689.27
2023-04-20T11:09:23.855Z,100682.14
2023-04-20T11:12:39.429Z,100681.51
2023-04-20T11:15:43.848Z,100684.11
2023-04-20T11:18:55.026Z,100688.06
2023-04-20T11:22:00.018Z,100686.91
2023-04-20T11:25:09.307Z,100688.25
2023-04-20T11:28:13.233Z,100687.55
2023-04-20T11:31:18.676Z,100687.29
2023-04-20T11:34:23.798Z,100677.73
2023-04-20T11:37:28.897Z,100670.00
2023-04-20T11:40:33.481Z,100672.16
2023-04-20T11:43:37.498Z,100671.96
2023-04-20T11:46:44.185Z,100665.28
2023-04-20T11:49:48.138Z,100664.14
2023-04-20T11:52:52.565Z,100659.50
2023-04-20T11:55:56.942Z,100663.48
2023-04-20T11:59:00.834Z,100661.98
2023-04-20T12:02:05.734Z,100652.56
2023-04-20T12:05:09.988Z,100653.44
2023-04-20T12:08:14.363Z,100656.50
2023-04-20T12:11:18.597Z,100654.22
2023-04-20T12:14:22.683Z,100655.69
2023-04-20T12:17:26.822Z,100659.82
2023-04-20T12:20:31.317Z,100659.64
2023-04-20T12:23:37.175Z,100662.11
2023-04-20T12:26:41.109Z,100663.84
2023-04-20T12:29:45.089Z,100659.20
2023-04-20T12:32:49.128Z,100652.90
2023-04-20T12:35:54.041Z,100648.15
2023-04-20T12:38:58.516Z,100641.41
2023-04-20T12:42:02.580Z,100640.95
2023-04-20T12:45:07.813Z,100636.77
2023-04-20T12:48:11.896Z,100631.54
2023-04-20T12:51:15.984Z,100628.46
2023-04-20T12:54:20.402Z,100625.09
2023-04-20T12:57:24.632Z,100623.65
2023-04-20T13:00:28.742Z,100624.60
2023-04-20T13:03:32.820Z,100626.52
2023-04-20T13:06:37.084Z,100623.67
2023-04-20T13:09:41.023Z,100624.68
2023-04-20T13:12:45.013Z,100622.52
2023-04-20T13:15:49.027Z,100616.46
2023-04-20T13:18:52.965Z,100609.91
2023-04-20T13:21:57.717Z,100609.77
2023-04-20T13:25:01.879Z,100608.23
2023-04-20T13:28:06.112Z,100608.17
2023-04-20T13:31:10.230Z,100609.96
2023-04-20T13:34:14.336Z,100609.91
2023-04-20T13:37:18.726Z,100610.84
2023-04-20T13:40:22.741Z,100607.05
2023-04-20T13:43:26.922Z,100606.59
2023-04-20T13:46:31.694Z,100603.71
2023-04-20T13:49:35.687Z,100605.16
2023-04-20T13:52:39.678Z,100603.47
2023-04-20T13:55:43.726Z,100601.88
2023-04-20T13:58:47.812Z,100598.32
2023-04-20T14:01:51.933Z,100603.13
2023-04-20T14:04:59.375Z,100602.91
2023-04-20T14:08:03.869Z,100598.08
2023-04-20T14:11:07.987Z,100602.27
2023-04-20T14:14:12.478Z,100604.27
2023-04-20T14:17:19.337Z,100601.39
2023-04-20T14:20:23.491Z,100596.48
2023-04-20T14:23:27.518Z,100591.59
2023-04-20T14:26:31.538Z,100591.85
2023-04-20T14:29:35.659Z,100592.37
2023-04-20T14:32:40.887Z,100591.08
2023-04-20T14:35:46.462Z,100588.09
2023-04-20T14:38:50.564Z,100589.63
2023-04-20T14:41:54.585Z,100590.12
2023-04-20T14:44:58.711Z,100591.35
2023-04-20T14:48:03.202Z,100594.38
2023-04-20T14:51:07.964Z,100595.56
2023-04-20T14:54:11.936Z,100593.63
2023-04-20T14:57:15.990Z,100590.29
2023-04-20T15:00:20.600Z,100588.47
2023-04-20T15:03:24.780Z,100591.98
2023-04-20T15:06:29.057Z,100591.08
2023-04-20T15:09:33.082Z,100591.59
2023-04-20T15:12:37.088Z,100591.70
2023-04-20T15:15:48.351Z,100595.11
2023-04-20T15:18:54.805Z,100595.31
2023-04-20T15:21:58.863Z,100594.30
2023-04-20T15:25:04.550Z,100590.13
2023-04-20T15:28:08.548Z,100590.59
2023-04-20T15:31:16.978Z,100592.25
2023-04-20T15:34:21.823Z,100592.35
2023-04-20T15:37:26.125Z,100589.52
2023-04-20T15:40:30.453Z,100587.73
2023-04-20T15:43:34.483Z,100588.70
2023-04-20T15:46:38.647Z,100590.39
2023-04-20T15:49:42.707Z,100587.22
2023-04-20T15:52:49.728Z,100585.88
2023-04-20T15:55:53.913Z,100578.70
2023-04-20T15:58:57.862Z,100583.98
2023-04-20T16:02:01.965Z,100583.06
2023-04-20T16:05:07.514Z,100583.73
2023-04-20T16:08:13.157Z,100584.34
2023-04-20T16:11:17.249Z,100587.66
2023-04-20T16:14:21.463Z,100578.25
2023-04-20T16:17:25.730Z,100580.98
2023-04-20T16:20:29.683Z,100584.72
2023-04-20T16:23:33.722Z,100586.05
2023-04-20T16:26:39.523Z,100583.95
2023-04-20T16:29:45.152Z,100589.97
2023-04-20T16:32:50.082Z,100594.48
2023-04-20T16:35:54.297Z,100594.40
2023-04-20T16:38:58.406Z,100601.14
2023-04-20T16:42:02.993Z,100604.50
2023-04-20T16:45:07.971Z,100606.63
2023-04-20T16:48:12.595Z,100608.23
2023-04-20T16:51:16.940Z,100612.45
2023-04-20T16:54:21.652Z,100615.40
2023-04-20T16:57:25.890Z,100617.89
2023-04-20T17:00:31.883Z,100616.16
2023-04-20T17:03:36.129Z,100622.42
2023-04-20T17:06:40.292Z,100620.44
2023-04-20T17:09:44.307Z,100623.11
2023-04-20T17:12:49.366Z,100621.64
2023-04-20T17:15:53.658Z,100623.27
2023-04-20T17:18:57.756Z,100626.20
2023-04-20T17:34:53.957Z,100636.53
2023-04-20T17:37:59.808Z,100640.58
2023-04-20T17:41:05.158Z,100641.26
2023-04-20T17:44:11.622Z,100647.45
2023-04-20T17:47:16.122Z,100641.92
2023-04-20T17:50:20.477Z,100645.95
2023-04-20T17:53:24.503Z,100646.70
2023-04-20T17:56:28.615Z,100648.77
2023-04-20T17:59:32.629Z,100646.90
2023-04-20T18:02:36.653Z,100653.17
2023-04-20T18:05:41.773Z,100650.16
2023-04-20T18:08:46.619Z,100656.69
2023-04-20T18:11:50.615Z,100656.55
2023-04-20T18:14:54.769Z,100659.33
2023-04-20T18:17:58.733Z,100662.86
2023-04-20T18:21:04.222Z,100663.14
2023-04-20T18:24:08.338Z,100667.46
2023-04-20T18:27:12.565Z,100666.75
2023-04-20T18:30:18.489Z,100670.44
2023-04-20T18:33:22.460Z,100667.42
2023-04-20T18:36:26.945Z,100666.42
2023-04-20T18:39:30.837Z,100669.37
2023-04-20T18:42:34.760Z,100670.80
2023-04-20T18:45:38.808Z,100666.73
2023-04-20T18:48:42.694Z,100668.34
2023-04-20T18:51:46.937Z,100675.50
2023-04-20T18:54:51.860Z,100677.55
2023-04-20T18:57:55.772Z,100676.63
2023-04-20T19:01:02.196Z,100683.69
2023-04-20T19:04:10.551Z,100681.19
2023-04-20T19:07:14.658Z,100686.58
2023-04-20T19:10:18.649Z,100685.20
2023-04-20T19:13:23.226Z,100684.17
2023-04-20T19:16:30.236Z,100686.40
2023-04-20T19:19:34.824Z,100696.17
2023-04-20T19:22:38.870Z,100692.14
2023-04-20T19:25:42.779Z,100689.48
2023-04-20T19:28:46.808Z,100691.48
2023-04-20T19:31:50.817Z,100695.88
2023-04-20T19:34:57.498Z,100692.05
2023-04-20T19:38:01.517Z,100693.50
2023-04-20T19:41:06.384Z,100696.56
2023-04-20T19:44:12.094Z,100695.83
2023-04-20T19:47:16.229Z,100694.63
2023-04-20T19:50:20.242Z,100696.64
2023-04-20T19:53:25.325Z,100693.71
2023-04-20T19:56:29.364Z,100694.09
2023-04-20T19:59:33.264Z,100696.33
2023-04-20T20:02:38.715Z,100703.43
2023-04-20T20:05:43.884Z,100701.94
2023-04-20T20:08:48.605Z,100704.85
2023-04-20T20:11:52.530Z,100705.27
2023-04-20T20:14:56.564Z,100703.73
2023-04-20T20:18:00.592Z,100701.36
2023-04-20T20:21:04.902Z,100698.66
2023-04-20T20:24:08.832Z,100698.44
2023-04-20T20:27:12.857Z,100702.41
2023-04-20T20:30:17.112Z,100703.20
2023-04-20T20:33:21.061Z,100700.14
2023-04-20T20:36:25.284Z,100701.62
2023-04-20T20:39:29.176Z,100700.05
2023-04-20T20:42:38.959Z,100704.53
2023-04-20T20:45:43.173Z,100705.92
2023-04-20T20:48:47.181Z,100704.95
2023-04-20T20:51:52.181Z,100703.70
2023-04-20T20:54:56.236Z,100706.16
2023-04-20T20:58:00.639Z,100703.48
2023-04-20T21:01:04.589Z,100701.02
2023-04-20T21:04:08.955Z,100704.50
2023-04-20T21:07:13.054Z,100708.36
2023-04-20T21:10:17.238Z,100708.48
2023-04-20T21:13:22.105Z,100710.23
2023-04-20T21:16:26.138Z,100706.85
2023-04-20T21:19:30.208Z,100706.52
2023-04-20T21:22:34.333Z,100707.61
2023-04-20T21:25:38.345Z,100706.11
2023-04-20T21:28:42.669Z,100707.12
2023-04-20T21:31:46.947Z,100705.61
2023-04-20T21:34:51.930Z,100704.10
2023-04-20T21:37:56.153Z,100706.80
2023-04-20T21:41:00.307Z,100707.41
2023-04-20T21:44:04.402Z,100703.15
2023-04-20T21:47:08.501Z,100709.23
2023-04-20T21:50:12.626Z,100703.39
2023-04-20T21:53:16.736Z,100702.28
2023-04-20T21:56:20.670Z,100701.98
2023-04-20T21:59:24.665Z,100702.66
2023-04-20T22:02:28.847Z,100702.89
2023-04-20T22:05:33.425Z,100705.52
2023-04-20T22:08:40.082Z,100704.34
2023-04-20T22:11:44.216Z,100703.81
2023-04-20T22:14:48.231Z,100706.63
2023-04-20T22:17:52.578Z,100706.45
2023-04-20T22:20:57.077Z,100710.45
2023-04-20T22:24:01.299Z,100709.96
2023-04-20T22:27:05.423Z,100709.00
2023-04-20T22:30:09.984Z,100713.67
2023-04-20T22:33:13.962Z,100712.44
2023-04-20T22:36:18.809Z,100710.38
2023-04-20T22:39:23.350Z,100710.73
2023-04-20T22:42:27.446Z,100713.09
2023-04-20T22:45:31.465Z,100712.06
2023-04-20T22:48:35.444Z,100712.41
2023-04-20T22:51:39.488Z,100717.73
2023-04-20T22:54:48.368Z,100721.39
2023-04-20T22:57:52.526Z,100716.48
2023-04-20T23:00:56.485Z,100718.73
2023-04-20T23:04:00.852Z,100718.50
2023-04-20T23:07:05.304Z,100715.30
2023-04-20T23:10:11.061Z,100710.69
2023-04-20T23:13:18.338Z,100709.00
2023-04-20T23:16:23.293Z,100712.28
2023-04-20T23:19:29.194Z,100710.95
2023-04-20T23:22:33.159Z,100712.91
2023-04-20T23:25:37.771Z,100714.25
2023-04-20T23:28:41.819Z,100711.93
2023-04-20T23:31:46.082Z,100709.55
2023-04-20T23:34:50.247Z,100717.50
2023-04-20T23:37:55.588Z,100709.59
2023-04-20T23:40:59.531Z,100712.25
2023-04-20T23:44:03.637Z,100708.62
2023-04-20T23:47:07.621Z,100707.67
2023-04-20T23:50:11.736Z,100710.73
2023-04-20T23:53:15.868Z,100711.52
2023-04-20T23:56:19.891Z,100709.27
2023-04-20T23:59:24.295Z,100709.52
